sensor_id;sensor_type;location;lat;lon;timestamp;P1;durP1;ratioP1;P2;durP2;ratioP2
18142;SDS011;9197;50.930;3.140;2023-05-13T00:01:12;51.90;;;35.60;;
18142;SDS011;9197;50.930;3.140;2023-05-13T00:03:39;50.67;;;36.20;;
18142;SDS011;9197;50.930;3.140;2023-05-13T00:06:07;52.70;;;36.13;;
18142;SDS011;9197;50.930;3.140;2023-05-13T00:08:34;48.53;;;36.13;;
18142;SDS011;9197;50.930;3.140;2023-05-13T00:11:01;57.50;;;37.10;;
18142;SDS011;9197;50.930;3.140;2023-05-13T00:13:29;49.83;;;37.43;;
18142;SDS011;9197;50.930;3.140;2023-05-13T00:15:56;49.70;;;35.23;;
18142;SDS011;9197;50.930;3.140;2023-05-13T00:18:25;55.00;;;37.23;;
18142;SDS011;9197;50.930;3.140;2023-05-13T00:20:52;56.73;;;34.97;;
18142;SDS011;9197;50.930;3.140;2023-05-13T00:23:20;51.53;;;35.33;;
18142;SDS011;9197;50.930;3.140;2023-05-13T00:25:47;44.87;;;33.87;;
18142;SDS011;9197;50.930;3.140;2023-05-13T00:28:15;45.67;;;32.37;;
18142;SDS011;9197;50.930;3.140;2023-05-13T00:30:42;50.30;;;33.03;;
18142;SDS011;9197;50.930;3.140;2023-05-13T00:33:10;52.33;;;32.33;;
18142;SDS011;9197;50.930;3.140;2023-05-13T00:35:38;50.10;;;32.90;;
18142;SDS011;9197;50.930;3.140;2023-05-13T00:38:06;56.20;;;34.33;;
18142;SDS011;9197;50.930;3.140;2023-05-13T00:40:35;54.03;;;32.63;;
18142;SDS011;9197;50.930;3.140;2023-05-13T00:43:03;46.23;;;29.40;;
18142;SDS011;9197;50.930;3.140;2023-05-13T00:45:31;51.90;;;31.43;;
18142;SDS011;9197;50.930;3.140;2023-05-13T00:47:58;49.40;;;31.47;;
18142;SDS011;9197;50.930;3.140;2023-05-13T00:50:26;52.60;;;30.67;;
18142;SDS011;9197;50.930;3.140;2023-05-13T00:52:55;44.83;;;32.13;;
18142;SDS011;9197;50.930;3.140;2023-05-13T00:55:23;47.57;;;30.57;;
18142;SDS011;9197;50.930;3.140;2023-05-13T00:57:50;50.93;;;31.60;;
18142;SDS011;9197;50.930;3.140;2023-05-13T01:00:18;50.30;;;29.87;;
18142;SDS011;9197;50.930;3.140;2023-05-13T01:02:48;51.03;;;30.20;;
18142;SDS011;9197;50.930;3.140;2023-05-13T01:05:19;53.00;;;30.80;;
18142;SDS011;9197;50.930;3.140;2023-05-13T01:07:51;47.93;;;29.90;;
18142;SDS011;9197;50.930;3.140;2023-05-13T01:10:22;55.63;;;30.17;;
18142;SDS011;9197;50.930;3.140;2023-05-13T01:12:54;53.63;;;31.80;;
18142;SDS011;9197;50.930;3.140;2023-05-13T01:15:23;44.03;;;29.90;;
18142;SDS011;9197;50.930;3.140;2023-05-13T01:17:52;53.77;;;30.20;;
18142;SDS011;9197;50.930;3.140;2023-05-13T01:20:21;51.80;;;30.83;;
18142;SDS011;9197;50.930;3.140;2023-05-13T01:22:50;47.20;;;30.73;;
18142;SDS011;9197;50.930;3.140;2023-05-13T01:25:18;51.93;;;31.07;;
18142;SDS011;9197;50.930;3.140;2023-05-13T01:27:45;49.63;;;30.77;;
18142;SDS011;9197;50.930;3.140;2023-05-13T01:30:12;48.33;;;31.00;;
18142;SDS011;9197;50.930;3.140;2023-05-13T01:32:40;50.87;;;29.37;;
18142;SDS011;9197;50.930;3.140;2023-05-13T01:35:08;56.63;;;31.27;;
18142;SDS011;9197;50.930;3.140;2023-05-13T01:37:36;57.73;;;30.80;;
18142;SDS011;9197;50.930;3.140;2023-05-13T01:40:06;60.53;;;33.43;;
18142;SDS011;9197;50.930;3.140;2023-05-13T01:42:34;51.47;;;32.03;;
18142;SDS011;9197;50.930;3.140;2023-05-13T01:45:01;51.00;;;30.13;;
18142;SDS011;9197;50.930;3.140;2023-05-13T01:47:28;58.50;;;31.50;;
18142;SDS011;9197;50.930;3.140;2023-05-13T01:49:56;53.70;;;31.97;;
18142;SDS011;9197;50.930;3.140;2023-05-13T01:52:23;53.87;;;31.63;;
18142;SDS011;9197;50.930;3.140;2023-05-13T01:54:50;54.87;;;33.50;;
18142;SDS011;9197;50.930;3.140;2023-05-13T01:57:19;52.23;;;31.30;;
18142;SDS011;9197;50.930;3.140;2023-05-13T01:59:46;61.57;;;32.97;;
18142;SDS011;9197;50.930;3.140;2023-05-13T02:02:14;44.23;;;31.40;;
18142;SDS011;9197;50.930;3.140;2023-05-13T02:04:41;57.30;;;33.97;;
18142;SDS011;9197;50.930;3.140;2023-05-13T02:07:08;53.93;;;32.03;;
18142;SDS011;9197;50.930;3.140;2023-05-13T02:09:36;58.00;;;31.53;;
18142;SDS011;9197;50.930;3.140;2023-05-13T02:12:03;42.93;;;31.23;;
18142;SDS011;9197;50.930;3.140;2023-05-13T02:14:32;51.30;;;31.47;;
18142;SDS011;9197;50.930;3.140;2023-05-13T02:17:00;55.67;;;32.07;;
18142;SDS011;9197;50.930;3.140;2023-05-13T02:19:27;52.40;;;33.37;;
18142;SDS011;9197;50.930;3.140;2023-05-13T02:21:54;60.03;;;33.63;;
18142;SDS011;9197;50.930;3.140;2023-05-13T02:24:22;50.90;;;33.40;;
18142;SDS011;9197;50.930;3.140;2023-05-13T02:26:50;52.60;;;33.57;;
18142;SDS011;9197;50.930;3.140;2023-05-13T02:29:18;52.13;;;35.57;;
18142;SDS011;9197;50.930;3.140;2023-05-13T02:31:47;49.67;;;35.30;;
18142;SDS011;9197;50.930;3.140;2023-05-13T02:34:14;60.47;;;38.37;;
18142;SDS011;9197;50.930;3.140;2023-05-13T02:36:42;65.47;;;39.00;;
18142;SDS011;9197;50.930;3.140;2023-05-13T02:39:09;63.97;;;40.37;;
18142;SDS011;9197;50.930;3.140;2023-05-13T02:41:37;60.23;;;37.90;;
18142;SDS011;9197;50.930;3.140;2023-05-13T02:44:04;63.83;;;40.57;;
18142;SDS011;9197;50.930;3.140;2023-05-13T02:46:31;66.00;;;39.27;;
18142;SDS011;9197;50.930;3.140;2023-05-13T02:49:00;64.43;;;41.10;;
18142;SDS011;9197;50.930;3.140;2023-05-13T02:51:28;58.07;;;39.33;;
18142;SDS011;9197;50.930;3.140;2023-05-13T02:53:55;65.53;;;39.57;;
18142;SDS011;9197;50.930;3.140;2023-05-13T02:56:22;65.67;;;42.83;;
18142;SDS011;9197;50.930;3.140;2023-05-13T02:58:50;57.37;;;37.80;;
18142;SDS011;9197;50.930;3.140;2023-05-13T03:01:17;57.70;;;40.63;;
18142;SDS011;9197;50.930;3.140;2023-05-13T03:03:44;56.03;;;39.17;;
18142;SDS011;9197;50.930;3.140;2023-05-13T03:06:13;62.10;;;39.83;;
18142;SDS011;9197;50.930;3.140;2023-05-13T03:08:41;59.57;;;40.27;;
18142;SDS011;9197;50.930;3.140;2023-05-13T03:11:08;56.33;;;39.33;;
18142;SDS011;9197;50.930;3.140;2023-05-13T03:13:35;59.60;;;38.43;;
18142;SDS011;9197;50.930;3.140;2023-05-13T03:16:03;55.13;;;38.47;;
18142;SDS011;9197;50.930;3.140;2023-05-13T03:18:30;53.73;;;38.17;;
18142;SDS011;9197;50.930;3.140;2023-05-13T03:20:57;46.33;;;36.47;;
18142;SDS011;9197;50.930;3.140;2023-05-13T03:23:26;50.47;;;37.03;;
18142;SDS011;9197;50.930;3.140;2023-05-13T03:25:54;52.67;;;35.50;;
18142;SDS011;9197;50.930;3.140;2023-05-13T03:28:21;64.90;;;36.67;;
18142;SDS011;9197;50.930;3.140;2023-05-13T03:30:48;53.57;;;36.23;;
18142;SDS011;9197;50.930;3.140;2023-05-13T03:33:16;58.60;;;37.03;;
18142;SDS011;9197;50.930;3.140;2023-05-13T03:35:44;59.70;;;35.93;;
18142;SDS011;9197;50.930;3.140;2023-05-13T03:38:12;52.53;;;36.13;;
18142;SDS011;9197;50.930;3.140;2023-05-13T03:40:41;57.90;;;36.93;;
18142;SDS011;9197;50.930;3.140;2023-05-13T03:43:08;69.53;;;37.73;;
18142;SDS011;9197;50.930;3.140;2023-05-13T03:45:36;49.00;;;35.60;;
18142;SDS011;9197;50.930;3.140;2023-05-13T03:48:03;52.80;;;32.70;;
18142;SDS011;9197;50.930;3.140;2023-05-13T03:50:31;54.70;;;34.57;;
18142;SDS011;9197;50.930;3.140;2023-05-13T03:52:58;57.13;;;35.00;;
18142;SDS011;9197;50.930;3.140;2023-05-13T03:55:25;59.60;;;34.23;;
18142;SDS011;9197;50.930;3.140;2023-05-13T03:57:54;47.93;;;33.83;;
18142;SDS011;9197;50.930;3.140;2023-05-13T04:00:21;50.87;;;34.83;;
18142;SDS011;9197;50.930;3.140;2023-05-13T04:02:49;52.10;;;35.03;;
18142;SDS011;9197;50.930;3.140;2023-05-13T04:05:16;54.33;;;36.13;;
18142;SDS011;9197;50.930;3.140;2023-05-13T04:07:43;64.57;;;37.83;;
18142;SDS011;9197;50.930;3.140;2023-05-13T04:10:11;58.17;;;34.77;;
18142;SDS011;9197;50.930;3.140;2023-05-13T04:12:38;57.10;;;36.47;;
18142;SDS011;9197;50.930;3.140;2023-05-13T04:15:08;58.77;;;35.50;;
18142;SDS011;9197;50.930;3.140;2023-05-13T04:17:35;54.40;;;35.63;;
18142;SDS011;9197;50.930;3.140;2023-05-13T04:20:03;49.90;;;36.07;;
18142;SDS011;9197;50.930;3.140;2023-05-13T04:22:30;49.83;;;35.37;;
18142;SDS011;9197;50.930;3.140;2023-05-13T04:24:57;58.17;;;36.17;;
18142;SDS011;9197;50.930;3.140;2023-05-13T04:27:25;62.40;;;36.57;;
18142;SDS011;9197;50.930;3.140;2023-05-13T04:29:52;59.47;;;34.43;;
18142;SDS011;9197;50.930;3.140;2023-05-13T04:32:21;58.30;;;33.53;;
18142;SDS011;9197;50.930;3.140;2023-05-13T04:34:48;50.67;;;34.20;;
18142;SDS011;9197;50.930;3.140;2023-05-13T04:37:16;50.07;;;31.80;;
18142;SDS011;9197;50.930;3.140;2023-05-13T04:39:44;56.53;;;34.17;;
18142;SDS011;9197;50.930;3.140;2023-05-13T04:42:11;48.60;;;33.43;;
18142;SDS011;9197;50.930;3.140;2023-05-13T04:44:39;54.27;;;34.07;;
18142;SDS011;9197;50.930;3.140;2023-05-13T04:47:06;48.57;;;30.57;;
18142;SDS011;9197;50.930;3.140;2023-05-13T04:49:35;52.57;;;32.03;;
18142;SDS011;9197;50.930;3.140;2023-05-13T04:52:03;48.00;;;31.03;;
18142;SDS011;9197;50.930;3.140;2023-05-13T04:54:30;52.57;;;31.47;;
18142;SDS011;9197;50.930;3.140;2023-05-13T04:56:59;44.87;;;29.17;;
18142;SDS011;9197;50.930;3.140;2023-05-13T04:59:27;46.83;;;29.03;;
18142;SDS011;9197;50.930;3.140;2023-05-13T05:01:54;48.17;;;28.87;;
18142;SDS011;9197;50.930;3.140;2023-05-13T05:04:21;42.73;;;27.40;;
18142;SDS011;9197;50.930;3.140;2023-05-13T05:06:50;44.47;;;26.73;;
18142;SDS011;9197;50.930;3.140;2023-05-13T05:09:17;43.87;;;26.53;;
18142;SDS011;9197;50.930;3.140;2023-05-13T05:11:45;45.43;;;26.33;;
18142;SDS011;9197;50.930;3.140;2023-05-13T05:14:14;40.23;;;25.17;;
18142;SDS011;9197;50.930;3.140;2023-05-13T05:16:41;34.93;;;24.90;;
18142;SDS011;9197;50.930;3.140;2023-05-13T05:19:08;41.73;;;25.13;;
18142;SDS011;9197;50.930;3.140;2023-05-13T05:21:36;38.50;;;24.97;;
18142;SDS011;9197;50.930;3.140;2023-05-13T05:24:05;29.77;;;22.53;;
18142;SDS011;9197;50.930;3.140;2023-05-13T05:26:32;43.23;;;23.27;;
18142;SDS011;9197;50.930;3.140;2023-05-13T05:29:00;39.77;;;21.53;;
18142;SDS011;9197;50.930;3.140;2023-05-13T05:31:27;41.40;;;21.70;;
18142;SDS011;9197;50.930;3.140;2023-05-13T05:33:54;29.00;;;20.93;;
18142;SDS011;9197;50.930;3.140;2023-05-13T05:36:23;31.37;;;19.27;;
18142;SDS011;9197;50.930;3.140;2023-05-13T05:38:50;37.60;;;20.57;;
18142;SDS011;9197;50.930;3.140;2023-05-13T05:41:19;36.10;;;21.07;;
18142;SDS011;9197;50.930;3.140;2023-05-13T05:43:46;38.70;;;18.87;;
18142;SDS011;9197;50.930;3.140;2023-05-13T05:46:14;33.67;;;20.47;;
18142;SDS011;9197;50.930;3.140;2023-05-13T05:48:41;32.13;;;20.00;;
18142;SDS011;9197;50.930;3.140;2023-05-13T05:51:09;39.90;;;19.33;;
18142;SDS011;9197;50.930;3.140;2023-05-13T05:53:37;28.97;;;17.33;;
18142;SDS011;9197;50.930;3.140;2023-05-13T05:56:06;33.60;;;17.37;;
18142;SDS011;9197;50.930;3.140;2023-05-13T05:58:35;33.43;;;17.33;;
18142;SDS011;9197;50.930;3.140;2023-05-13T06:01:02;27.17;;;15.93;;
18142;SDS011;9197;50.930;3.140;2023-05-13T06:03:30;30.97;;;17.53;;
18142;SDS011;9197;50.930;3.140;2023-05-13T06:05:57;30.97;;;18.53;;
18142;SDS011;9197;50.930;3.140;2023-05-13T06:08:25;33.10;;;16.83;;
18142;SDS011;9197;50.930;3.140;2023-05-13T06:10:54;38.30;;;18.13;;
18142;SDS011;9197;50.930;3.140;2023-05-13T06:13:22;28.93;;;16.33;;
18142;SDS011;9197;50.930;3.140;2023-05-13T06:15:51;29.97;;;16.47;;
18142;SDS011;9197;50.930;3.140;2023-05-13T06:18:19;29.17;;;16.20;;
18142;SDS011;9197;50.930;3.140;2023-05-13T06:20:46;35.13;;;17.27;;
18142;SDS011;9197;50.930;3.140;2023-05-13T06:23:14;32.10;;;17.10;;
18142;SDS011;9197;50.930;3.140;2023-05-13T06:25:41;29.57;;;15.67;;
18142;SDS011;9197;50.930;3.140;2023-05-13T06:28:09;27.37;;;15.53;;
18142;SDS011;9197;50.930;3.140;2023-05-13T06:30:37;25.80;;;16.17;;
18142;SDS011;9197;50.930;3.140;2023-05-13T06:33:06;32.40;;;16.73;;
18142;SDS011;9197;50.930;3.140;2023-05-13T06:35:34;29.13;;;16.33;;
18142;SDS011;9197;50.930;3.140;2023-05-13T06:38:02;27.63;;;14.90;;
18142;SDS011;9197;50.930;3.140;2023-05-13T06:40:30;31.60;;;16.60;;
18142;SDS011;9197;50.930;3.140;2023-05-13T06:42:57;27.47;;;16.40;;
18142;SDS011;9197;50.930;3.140;2023-05-13T06:45:24;28.37;;;14.70;;
18142;SDS011;9197;50.930;3.140;2023-05-13T06:47:52;27.17;;;14.57;;
18142;SDS011;9197;50.930;3.140;2023-05-13T06:50:21;23.97;;;14.50;;
18142;SDS011;9197;50.930;3.140;2023-05-13T06:52:48;25.03;;;14.60;;
18142;SDS011;9197;50.930;3.140;2023-05-13T06:55:15;23.60;;;14.53;;
18142;SDS011;9197;50.930;3.140;2023-05-13T06:57:43;24.87;;;12.80;;
18142;SDS011;9197;50.930;3.140;2023-05-13T07:00:11;26.00;;;13.40;;
18142;SDS011;9197;50.930;3.140;2023-05-13T07:02:39;24.40;;;13.00;;
18142;SDS011;9197;50.930;3.140;2023-05-13T07:05:07;30.03;;;11.23;;
18142;SDS011;9197;50.930;3.140;2023-05-13T07:07:36;17.17;;;10.07;;
18142;SDS011;9197;50.930;3.140;2023-05-13T07:10:03;18.00;;;9.65;;
18142;SDS011;9197;50.930;3.140;2023-05-13T07:12:31;18.75;;;8.93;;
18142;SDS011;9197;50.930;3.140;2023-05-13T07:14:59;20.55;;;8.48;;
18142;SDS011;9197;50.930;3.140;2023-05-13T07:17:27;22.40;;;9.00;;
18142;SDS011;9197;50.930;3.140;2023-05-13T07:19:55;16.60;;;8.30;;
18142;SDS011;9197;50.930;3.140;2023-05-13T07:22:23;18.05;;;8.85;;
18142;SDS011;9197;50.930;3.140;2023-05-13T07:24:52;19.45;;;8.43;;
18142;SDS011;9197;50.930;3.140;2023-05-13T07:27:20;16.88;;;8.43;;
18142;SDS011;9197;50.930;3.140;2023-05-13T07:29:47;17.90;;;8.65;;
18142;SDS011;9197;50.930;3.140;2023-05-13T07:32:15;16.33;;;8.05;;
18142;SDS011;9197;50.930;3.140;2023-05-13T07:34:42;16.75;;;7.90;;
18142;SDS011;9197;50.930;3.140;2023-05-13T07:37:09;17.27;;;8.38;;
18142;SDS011;9197;50.930;3.140;2023-05-13T07:39:37;17.00;;;8.50;;
18142;SDS011;9197;50.930;3.140;2023-05-13T07:42:06;15.45;;;7.28;;
18142;SDS011;9197;50.930;3.140;2023-05-13T07:44:34;14.98;;;7.00;;
18142;SDS011;9197;50.930;3.140;2023-05-13T07:47:01;13.07;;;7.72;;
18142;SDS011;9197;50.930;3.140;2023-05-13T07:49:29;17.70;;;8.63;;
18142;SDS011;9197;50.930;3.140;2023-05-13T07:51:56;16.23;;;9.05;;
18142;SDS011;9197;50.930;3.140;2023-05-13T07:54:23;17.92;;;9.27;;
18142;SDS011;9197;50.930;3.140;2023-05-13T07:56:51;13.73;;;8.57;;
18142;SDS011;9197;50.930;3.140;2023-05-13T07:59:19;14.73;;;8.30;;
18142;SDS011;9197;50.930;3.140;2023-05-13T08:01:47;15.20;;;8.25;;
18142;SDS011;9197;50.930;3.140;2023-05-13T08:04:14;12.10;;;8.32;;
18142;SDS011;9197;50.930;3.140;2023-05-13T08:06:42;12.48;;;7.82;;
18142;SDS011;9197;50.930;3.140;2023-05-13T08:09:09;12.55;;;8.20;;
18142;SDS011;9197;50.930;3.140;2023-05-13T08:11:38;14.93;;;8.27;;
18142;SDS011;9197;50.930;3.140;2023-05-13T08:14:05;11.25;;;8.30;;
18142;SDS011;9197;50.930;3.140;2023-05-13T08:16:34;14.60;;;8.10;;
18142;SDS011;9197;50.930;3.140;2023-05-13T08:19:02;15.15;;;8.55;;
18142;SDS011;9197;50.930;3.140;2023-05-13T08:21:29;16.80;;;8.48;;
18142;SDS011;9197;50.930;3.140;2023-05-13T08:23:57;14.73;;;8.85;;
18142;SDS011;9197;50.930;3.140;2023-05-13T08:26:24;14.02;;;8.55;;
18142;SDS011;9197;50.930;3.140;2023-05-13T08:28:52;16.15;;;8.35;;
18142;SDS011;9197;50.930;3.140;2023-05-13T08:31:21;15.48;;;10.02;;
18142;SDS011;9197;50.930;3.140;2023-05-13T08:33:50;13.20;;;9.65;;
18142;SDS011;9197;50.930;3.140;2023-05-13T08:36:18;17.73;;;9.70;;
18142;SDS011;9197;50.930;3.140;2023-05-13T08:38:46;14.95;;;11.77;;
18142;SDS011;9197;50.930;3.140;2023-05-13T08:41:13;12.02;;;10.35;;
18142;SDS011;9197;50.930;3.140;2023-05-13T08:43:41;15.82;;;10.45;;
18142;SDS011;9197;50.930;3.140;2023-05-13T08:46:10;19.40;;;10.38;;
18142;SDS011;9197;50.930;3.140;2023-05-13T08:48:38;13.32;;;10.20;;
18142;SDS011;9197;50.930;3.140;2023-05-13T08:51:08;14.38;;;9.68;;
18142;SDS011;9197;50.930;3.140;2023-05-13T08:53:36;11.23;;;9.05;;
18142;SDS011;9197;50.930;3.140;2023-05-13T08:56:04;12.10;;;9.60;;
18142;SDS011;9197;50.930;3.140;2023-05-13T08:58:34;12.18;;;9.65;;
18142;SDS011;9197;50.930;3.140;2023-05-13T09:01:01;12.63;;;9.73;;
18142;SDS011;9197;50.930;3.140;2023-05-13T09:03:29;13.00;;;9.52;;
18142;SDS011;9197;50.930;3.140;2023-05-13T09:05:59;11.77;;;9.45;;
18142;SDS011;9197;50.930;3.140;2023-05-13T09:08:28;12.32;;;10.85;;
18142;SDS011;9197;50.930;3.140;2023-05-13T09:10:56;13.10;;;10.35;;
18142;SDS011;9197;50.930;3.140;2023-05-13T09:13:24;14.80;;;10.18;;
18142;SDS011;9197;50.930;3.140;2023-05-13T09:15:51;13.85;;;10.98;;
18142;SDS011;9197;50.930;3.140;2023-05-13T09:18:19;12.82;;;10.48;;
18142;SDS011;9197;50.930;3.140;2023-05-13T09:20:46;13.57;;;11.45;;
18142;SDS011;9197;50.930;3.140;2023-05-13T09:23:14;15.60;;;11.57;;
18142;SDS011;9197;50.930;3.140;2023-05-13T09:25:43;20.33;;;10.43;;
18142;SDS011;9197;50.930;3.140;2023-05-13T09:28:13;11.15;;;9.98;;
18142;SDS011;9197;50.930;3.140;2023-05-13T09:30:40;13.95;;;10.38;;
18142;SDS011;9197;50.930;3.140;2023-05-13T09:33:10;12.38;;;11.15;;
18142;SDS011;9197;50.930;3.140;2023-05-13T09:35:38;13.65;;;11.10;;
18142;SDS011;9197;50.930;3.140;2023-05-13T09:38:12;12.85;;;10.70;;
18142;SDS011;9197;50.930;3.140;2023-05-13T09:40:40;12.70;;;10.95;;
18142;SDS011;9197;50.930;3.140;2023-05-13T09:43:09;13.07;;;11.70;;
18142;SDS011;9197;50.930;3.140;2023-05-13T09:45:37;12.65;;;11.15;;
18142;SDS011;9197;50.930;3.140;2023-05-13T09:48:04;12.60;;;11.32;;
18142;SDS011;9197;50.930;3.140;2023-05-13T09:50:32;14.95;;;12.05;;
18142;SDS011;9197;50.930;3.140;2023-05-13T09:53:08;14.00;;;12.07;;
18142;SDS011;9197;50.930;3.140;2023-05-13T09:55:37;15.15;;;11.80;;
18142;SDS011;9197;50.930;3.140;2023-05-13T09:58:09;12.07;;;11.05;;
18142;SDS011;9197;50.930;3.140;2023-05-13T10:00:37;15.80;;;11.75;;
18142;SDS011;9197;50.930;3.140;2023-05-13T10:03:05;12.50;;;11.27;;
18142;SDS011;9197;50.930;3.140;2023-05-13T10:05:33;13.27;;;11.85;;
18142;SDS011;9197;50.930;3.140;2023-05-13T10:08:00;12.55;;;11.35;;
18142;SDS011;9197;50.930;3.140;2023-05-13T10:10:29;14.82;;;13.32;;
18142;SDS011;9197;50.930;3.140;2023-05-13T10:12:57;16.17;;;12.52;;
18142;SDS011;9197;50.930;3.140;2023-05-13T10:15:29;13.93;;;12.43;;
18142;SDS011;9197;50.930;3.140;2023-05-13T10:17:56;14.80;;;13.27;;
18142;SDS011;9197;50.930;3.140;2023-05-13T10:20:25;14.13;;;12.60;;
18142;SDS011;9197;50.930;3.140;2023-05-13T10:22:53;15.52;;;13.15;;
18142;SDS011;9197;50.930;3.140;2023-05-13T10:25:20;14.00;;;12.25;;
18142;SDS011;9197;50.930;3.140;2023-05-13T10:27:48;15.20;;;11.55;;
18142;SDS011;9197;50.930;3.140;2023-05-13T10:30:17;14.52;;;12.48;;
18142;SDS011;9197;50.930;3.140;2023-05-13T10:32:51;13.77;;;11.27;;
18142;SDS011;9197;50.930;3.140;2023-05-13T10:35:19;16.83;;;13.10;;
18142;SDS011;9197;50.930;3.140;2023-05-13T10:37:59;14.55;;;12.27;;
18142;SDS011;9197;50.930;3.140;2023-05-13T10:40:33;13.38;;;12.02;;
18142;SDS011;9197;50.930;3.140;2023-05-13T10:43:08;13.15;;;11.90;;
18142;SDS011;9197;50.930;3.140;2023-05-13T10:45:36;14.77;;;11.93;;
18142;SDS011;9197;50.930;3.140;2023-05-13T10:48:09;13.55;;;12.23;;
18142;SDS011;9197;50.930;3.140;2023-05-13T10:50:37;13.93;;;12.18;;
18142;SDS011;9197;50.930;3.140;2023-05-13T10:53:07;18.95;;;14.20;;
18142;SDS011;9197;50.930;3.140;2023-05-13T10:55:39;13.70;;;12.50;;
18142;SDS011;9197;50.930;3.140;2023-05-13T10:58:07;15.32;;;13.73;;
18142;SDS011;9197;50.930;3.140;2023-05-13T11:00:35;14.68;;;12.95;;
18142;SDS011;9197;50.930;3.140;2023-05-13T11:03:08;16.48;;;14.20;;
18142;SDS011;9197;50.930;3.140;2023-05-13T11:05:37;16.60;;;13.32;;
18142;SDS011;9197;50.930;3.140;2023-05-13T11:08:04;14.57;;;13.07;;
18142;SDS011;9197;50.930;3.140;2023-05-13T11:10:32;15.23;;;13.35;;
18142;SDS011;9197;50.930;3.140;2023-05-13T11:13:06;15.75;;;13.45;;
18142;SDS011;9197;50.930;3.140;2023-05-13T11:15:43;14.48;;;13.02;;
18142;SDS011;9197;50.930;3.140;2023-05-13T11:18:12;14.32;;;12.98;;
18142;SDS011;9197;50.930;3.140;2023-05-13T11:20:39;14.98;;;13.40;;
18142;SDS011;9197;50.930;3.140;2023-05-13T11:23:07;14.32;;;12.70;;
18142;SDS011;9197;50.930;3.140;2023-05-13T11:25:34;15.65;;;13.80;;
18142;SDS011;9197;50.930;3.140;2023-05-13T11:28:02;15.07;;;13.55;;
18142;SDS011;9197;50.930;3.140;2023-05-13T11:30:29;16.77;;;12.98;;
18142;SDS011;9197;50.930;3.140;2023-05-13T11:32:57;17.33;;;13.63;;
18142;SDS011;9197;50.930;3.140;2023-05-13T11:35:27;15.50;;;13.25;;
18142;SDS011;9197;50.930;3.140;2023-05-13T11:37:55;16.08;;;13.73;;
18142;SDS011;9197;50.930;3.140;2023-05-13T11:40:23;15.30;;;12.88;;
18142;SDS011;9197;50.930;3.140;2023-05-13T11:42:51;15.18;;;13.02;;
18142;SDS011;9197;50.930;3.140;2023-05-13T11:45:19;15.68;;;13.60;;
18142;SDS011;9197;50.930;3.140;2023-05-13T11:47:46;16.83;;;13.70;;
18142;SDS011;9197;50.930;3.140;2023-05-13T11:50:17;17.13;;;13.55;;
18142;SDS011;9197;50.930;3.140;2023-05-13T11:52:53;15.02;;;13.32;;
18142;SDS011;9197;50.930;3.140;2023-05-13T11:55:24;18.92;;;13.95;;
18142;SDS011;9197;50.930;3.140;2023-05-13T11:57:52;15.68;;;14.23;;
18142;SDS011;9197;50.930;3.140;2023-05-13T12:00:23;20.05;;;14.20;;
18142;SDS011;9197;50.930;3.140;2023-05-13T12:02:51;16.95;;;15.18;;
18142;SDS011;9197;50.930;3.140;2023-05-13T12:05:18;19.50;;;13.48;;
18142;SDS011;9197;50.930;3.140;2023-05-13T12:07:46;16.73;;;13.30;;
18142;SDS011;9197;50.930;3.140;2023-05-13T12:10:15;22.00;;;14.60;;
18142;SDS011;9197;50.930;3.140;2023-05-13T12:12:43;16.17;;;13.27;;
18142;SDS011;9197;50.930;3.140;2023-05-13T12:15:12;16.88;;;14.60;;
18142;SDS011;9197;50.930;3.140;2023-05-13T12:17:39;14.95;;;13.07;;
18142;SDS011;9197;50.930;3.140;2023-05-13T12:20:07;17.92;;;13.07;;
18142;SDS011;9197;50.930;3.140;2023-05-13T12:22:36;16.00;;;12.65;;
18142;SDS011;9197;50.930;3.140;2023-05-13T12:27:51;16.05;;;13.23;;
18142;SDS011;9197;50.930;3.140;2023-05-13T12:30:19;14.55;;;12.90;;
18142;SDS011;9197;50.930;3.140;2023-05-13T12:32:46;18.15;;;14.32;;
18142;SDS011;9197;50.930;3.140;2023-05-13T12:35:13;17.38;;;13.73;;
18142;SDS011;9197;50.930;3.140;2023-05-13T12:37:41;16.15;;;12.98;;
18142;SDS011;9197;50.930;3.140;2023-05-13T12:40:09;17.55;;;13.50;;
18142;SDS011;9197;50.930;3.140;2023-05-13T12:42:36;23.08;;;14.30;;
18142;SDS011;9197;50.930;3.140;2023-05-13T12:45:05;17.80;;;14.77;;
18142;SDS011;9197;50.930;3.140;2023-05-13T12:47:48;38.10;;;15.88;;
18142;SDS011;9197;50.930;3.140;2023-05-13T12:50:15;18.90;;;14.18;;
18142;SDS011;9197;50.930;3.140;2023-05-13T12:52:43;14.93;;;12.57;;
18142;SDS011;9197;50.930;3.140;2023-05-13T12:55:13;16.92;;;15.27;;
18142;SDS011;9197;50.930;3.140;2023-05-13T12:57:41;26.27;;;15.45;;
18142;SDS011;9197;50.930;3.140;2023-05-13T13:00:12;20.27;;;14.57;;
18142;SDS011;9197;50.930;3.140;2023-05-13T13:02:40;15.40;;;13.80;;
18142;SDS011;9197;50.930;3.140;2023-05-13T13:05:08;16.38;;;14.27;;
18142;SDS011;9197;50.930;3.140;2023-05-13T13:07:35;18.95;;;13.52;;
18142;SDS011;9197;50.930;3.140;2023-05-13T13:10:04;19.45;;;13.77;;
18142;SDS011;9197;50.930;3.140;2023-05-13T13:12:32;20.90;;;13.00;;
18142;SDS011;9197;50.930;3.140;2023-05-13T13:14:59;14.30;;;12.75;;
18142;SDS011;9197;50.930;3.140;2023-05-13T13:17:28;15.68;;;14.02;;
18142;SDS011;9197;50.930;3.140;2023-05-13T13:19:55;15.77;;;13.20;;
18142;SDS011;9197;50.930;3.140;2023-05-13T13:22:23;19.10;;;13.73;;
18142;SDS011;9197;50.930;3.140;2023-05-13T13:24:50;20.05;;;13.63;;
18142;SDS011;9197;50.930;3.140;2023-05-13T13:27:17;15.23;;;12.70;;
18142;SDS011;9197;50.930;3.140;2023-05-13T13:29:44;18.73;;;13.70;;
18142;SDS011;9197;50.930;3.140;2023-05-13T13:32:12;14.68;;;11.95;;
18142;SDS011;9197;50.930;3.140;2023-05-13T13:34:41;17.00;;;12.57;;
18142;SDS011;9197;50.930;3.140;2023-05-13T13:37:08;15.18;;;12.35;;
18142;SDS011;9197;50.930;3.140;2023-05-13T13:39:35;17.35;;;11.82;;
18142;SDS011;9197;50.930;3.140;2023-05-13T13:42:03;13.70;;;11.75;;
18142;SDS011;9197;50.930;3.140;2023-05-13T13:44:30;12.02;;;10.32;;
18142;SDS011;9197;50.930;3.140;2023-05-13T13:46:57;19.65;;;12.82;;
18142;SDS011;9197;50.930;3.140;2023-05-13T13:49:25;14.65;;;11.10;;
18142;SDS011;9197;50.930;3.140;2023-05-13T13:51:54;19.60;;;12.77;;
18142;SDS011;9197;50.930;3.140;2023-05-13T13:54:21;15.55;;;11.82;;
18142;SDS011;9197;50.930;3.140;2023-05-13T13:56:48;19.02;;;12.02;;
18142;SDS011;9197;50.930;3.140;2023-05-13T13:59:16;17.88;;;12.25;;
18142;SDS011;9197;50.930;3.140;2023-05-13T14:01:44;16.85;;;12.75;;
18142;SDS011;9197;50.930;3.140;2023-05-13T14:04:11;14.38;;;11.93;;
18142;SDS011;9197;50.930;3.140;2023-05-13T14:06:39;16.35;;;12.30;;
18142;SDS011;9197;50.930;3.140;2023-05-13T14:09:08;16.33;;;12.85;;
18142;SDS011;9197;50.930;3.140;2023-05-13T14:11:35;16.00;;;12.90;;
18142;SDS011;9197;50.930;3.140;2023-05-13T14:14:03;19.05;;;13.27;;
18142;SDS011;9197;50.930;3.140;2023-05-13T14:16:31;14.85;;;12.45;;
18142;SDS011;9197;50.930;3.140;2023-05-13T14:18:58;15.82;;;13.35;;
18142;SDS011;9197;50.930;3.140;2023-05-13T14:21:25;13.43;;;11.48;;
18142;SDS011;9197;50.930;3.140;2023-05-13T14:23:53;15.75;;;12.32;;
18142;SDS011;9197;50.930;3.140;2023-05-13T14:26:22;17.13;;;12.00;;
18142;SDS011;9197;50.930;3.140;2023-05-13T14:28:50;17.33;;;12.68;;
18142;SDS011;9197;50.930;3.140;2023-05-13T14:31:17;13.85;;;10.95;;
18142;SDS011;9197;50.930;3.140;2023-05-13T14:33:45;17.33;;;13.85;;
18142;SDS011;9197;50.930;3.140;2023-05-13T14:36:12;19.63;;;14.57;;
18142;SDS011;9197;50.930;3.140;2023-05-13T14:38:40;21.65;;;13.93;;
18142;SDS011;9197;50.930;3.140;2023-05-13T14:41:07;21.67;;;13.73;;
18142;SDS011;9197;50.930;3.140;2023-05-13T14:43:36;13.90;;;12.45;;